Time;durP1;ratioP1;P1;durP2;ratioP2;P2;SDS_P1;SDS_P2;PMS_P1;PMS_P2;Temp;Humidity;BMP_temperature;BMP_pressure;BME280_temperature;BME280_humidity;BME280_pressure;Samples;Min_cycle;Max_cycle;Signal;HPM_P1;HPM_P2
2022/01/19 00:01:23;;;;;;;7.77;5.50;;;;;;;;;;4974969;28;20228;-62
2022/01/19 00:03:49;;;;;;;7.00;5.37;;;;;;;;;;4977561;28;20742;-64
2022/01/19 00:06:15;;;;;;;7.17;5.40;;;;;;;;;;4975808;28;20275;-62
2022/01/19 00:08:41;;;;;;;7.63;5.47;;;;;;;;;;4985942;28;20260;-62
2022/01/19 00:11:07;;;;;;;7.73;5.17;;;;;;;;;;4958393;28;20232;-63
2022/01/19 00:13:33;;;;;;;7.47;5.70;;;;;;;;;;4957760;28;20340;-63
2022/01/19 00:15:59;;;;;;;9.83;5.60;;;;;;;;;;4961505;28;20256;-63
2022/01/19 00:18:25;;;;;;;9.17;6.37;;;;;;;;;;4953123;28;20221;-63
2022/01/19 00:20:51;;;;;;;9.17;6.10;;;;;;;;;;4966273;28;20225;-62
2022/01/19 00:23:18;;;;;;;7.60;5.60;;;;;;;;;;4969348;28;20230;-62
2022/01/19 00:25:44;;;;;;;8.07;5.53;;;;;;;;;;4967872;28;20240;-63
2022/01/19 00:28:10;;;;;;;8.13;6.27;;;;;;;;;;4976503;28;20683;-63
2022/01/19 00:30:36;;;;;;;9.37;6.50;;;;;;;;;;4971827;28;20232;-62
2022/01/19 00:33:02;;;;;;;6.87;6.07;;;;;;;;;;4969729;28;20747;-62
2022/01/19 00:35:28;;;;;;;7.73;6.23;;;;;;;;;;4978293;28;21526;-62
2022/01/19 00:37:54;;;;;;;7.93;6.30;;;;;;;;;;4959277;28;20225;-62
2022/01/19 00:40:20;;;;;;;7.50;6.30;;;;;;;;;;4963457;28;20234;-62
2022/01/19 00:42:46;;;;;;;8.67;6.10;;;;;;;;;;4964979;28;20252;-61
2022/01/19 00:45:13;;;;;;;9.97;6.40;;;;;;;;;;4973370;28;25543;-62
2022/01/19 00:47:39;;;;;;;8.33;5.80;;;;;;;;;;4960527;28;20232;-63
2022/01/19 00:50:05;;;;;;;8.57;6.70;;;;;;;;;;4973378;28;20236;-63
2022/01/19 00:52:31;;;;;;;10.23;6.27;;;;;;;;;;4964537;28;20245;-62
2022/01/19 00:54:57;;;;;;;9.27;6.17;;;;;;;;;;4975469;28;20220;-62
2022/01/19 00:57:23;;;;;;;10.80;6.20;;;;;;;;;;4973576;28;21436;-63
2022/01/19 00:59:51;;;;;;;7.10;5.57;;;;;;;;;;4969414;28;20224;-62
2022/01/19 01:02:17;;;;;;;6.73;5.83;;;;;;;;;;4978908;28;20233;-62
2022/01/19 01:04:43;;;;;;;6.80;6.10;;;;;;;;;;4985239;28;20241;-62
2022/01/19 01:07:09;;;;;;;7.07;5.80;;;;;;;;;;4981122;28;20236;-62
2022/01/19 01:09:35;;;;;;;7.23;5.50;;;;;;;;;;4977686;28;21203;-64
2022/01/19 01:12:20;;;;;;;7.43;5.93;;;;;;;;;;4957338;28;20319;-64
2022/01/19 01:20:16;;;;;;;6.50;5.37;;;;;;;;;;4976456;28;21622;-63
2022/01/19 01:22:42;;;;;;;8.03;5.87;;;;;;;;;;4988725;28;20230;-63
2022/01/19 01:25:08;;;;;;;6.73;5.60;;;;;;;;;;4977585;28;20232;-61
2022/01/19 01:27:34;;;;;;;8.13;5.80;;;;;;;;;;4950520;28;20690;-62
2022/01/19 01:30:00;;;;;;;6.97;5.87;;;;;;;;;;4979001;28;20239;-63
2022/01/19 01:32:26;;;;;;;6.47;5.77;;;;;;;;;;4967727;28;20265;-63
2022/01/19 01:34:52;;;;;;;6.83;6.10;;;;;;;;;;4982595;28;20319;-64
2022/01/19 01:37:18;;;;;;;7.13;5.87;;;;;;;;;;4986574;28;20842;-62
2022/01/19 01:39:44;;;;;;;8.37;6.00;;;;;;;;;;4971823;28;20296;-62
2022/01/19 01:42:11;;;;;;;9.33;6.67;;;;;;;;;;4962032;28;20351;-62
2022/01/19 01:44:38;;;;;;;7.10;5.67;;;;;;;;;;4957544;28;22270;-62
2022/01/19 01:47:04;;;;;;;6.97;5.93;;;;;;;;;;4977862;28;20738;-63
2022/01/19 01:55:17;;;;;;;8.00;6.47;;;;;;;;;;4967491;28;20278;-63
2022/01/19 01:57:43;;;;;;;8.23;6.03;;;;;;;;;;4972605;28;20225;-63
2022/01/19 02:00:10;;;;;;;7.30;6.50;;;;;;;;;;4971643;28;20225;-62
2022/01/19 02:02:36;;;;;;;7.90;6.23;;;;;;;;;;4976172;28;20687;-63
2022/01/19 02:05:02;;;;;;;8.60;6.63;;;;;;;;;;4992683;28;20268;-64
2022/01/19 02:10:00;;;;;;;9.60;7.00;;;;;;;;;;4980094;28;21149;-64
2022/01/19 02:23:28;;;;;;;7.40;6.70;;;;;;;;;;4985477;28;20421;-65
2022/01/19 02:25:59;;;;;;;11.03;7.63;;;;;;;;;;4982578;28;20229;-65
2022/01/19 02:42:11;;;;;;;9.03;7.77;;;;;;;;;;4978394;28;20753;-63
2022/01/19 02:46:39;;;;;;;9.10;7.90;;;;;;;;;;4975058;28;20955;-64
2022/01/19 02:49:55;;;;;;;9.83;8.70;;;;;;;;;;4976855;28;20262;-65
2022/01/19 02:52:22;;;;;;;9.60;8.50;;;;;;;;;;4977267;28;20244;-63
2022/01/19 02:54:49;;;;;;;10.10;8.63;;;;;;;;;;4974731;28;20336;-64
2022/01/19 02:57:15;;;;;;;11.03;8.90;;;;;;;;;;4981844;28;20237;-63
2022/01/19 03:10:34;;;;;;;12.37;10.83;;;;;;;;;;4968556;28;20384;-63
2022/01/19 03:13:00;;;;;;;12.63;10.00;;;;;;;;;;4980414;28;20511;-65
2022/01/19 03:15:27;;;;;;;12.50;11.20;;;;;;;;;;4975656;28;20232;-63
2022/01/19 03:17:57;;;;;;;12.77;11.37;;;;;;;;;;4980023;28;20741;-64
2022/01/19 03:20:23;;;;;;;13.50;11.10;;;;;;;;;;4975181;28;20707;-63
2022/01/19 03:23:00;;;;;;;13.47;11.03;;;;;;;;;;4976186;28;20233;-65
2022/01/19 03:25:26;;;;;;;13.17;11.13;;;;;;;;;;4960313;28;20247;-64
2022/01/19 03:27:52;;;;;;;13.60;11.73;;;;;;;;;;4967737;28;20229;-65
2022/01/19 03:30:18;;;;;;;13.90;11.73;;;;;;;;;;4976771;28;20225;-64
2022/01/19 03:32:44;;;;;;;16.27;11.90;;;;;;;;;;4961774;28;20318;-64
2022/01/19 03:35:10;;;;;;;14.97;11.83;;;;;;;;;;4977589;28;20218;-65
2022/01/19 03:37:36;;;;;;;15.53;12.33;;;;;;;;;;4982819;28;20233;-65
2022/01/19 03:40:03;;;;;;;14.87;12.47;;;;;;;;;;4985955;28;20650;-64
2022/01/19 03:42:29;;;;;;;14.97;12.03;;;;;;;;;;4981975;28;20225;-64
2022/01/19 03:44:55;;;;;;;14.87;12.30;;;;;;;;;;4983124;28;20283;-64
2022/01/19 03:47:21;;;;;;;15.37;12.00;;;;;;;;;;4980119;28;20264;-63
2022/01/19 03:49:47;;;;;;;14.43;12.67;;;;;;;;;;4984293;28;20229;-64
2022/01/19 03:52:13;;;;;;;14.17;12.67;;;;;;;;;;4978649;28;20237;-64
2022/01/19 03:54:40;;;;;;;13.63;12.20;;;;;;;;;;4984667;28;20272;-64
2022/01/19 03:57:06;;;;;;;15.23;12.67;;;;;;;;;;4978225;28;20221;-64
2022/01/19 03:59:32;;;;;;;15.73;12.97;;;;;;;;;;4979222;28;20224;-65
2022/01/19 04:01:58;;;;;;;13.47;12.07;;;;;;;;;;4976173;28;20226;-64
2022/01/19 04:09:19;;;;;;;16.03;13.53;;;;;;;;;;4990256;28;20919;-64
2022/01/19 04:11:45;;;;;;;16.33;12.70;;;;;;;;;;4988380;28;20229;-63
2022/01/19 04:14:25;;;;;;;14.10;12.47;;;;;;;;;;4989809;28;20324;-65
2022/01/19 04:16:55;;;;;;;17.27;12.77;;;;;;;;;;4989833;28;20314;-64
2022/01/19 04:19:25;;;;;;;13.90;12.50;;;;;;;;;;4987793;28;20580;-63
2022/01/19 04:21:51;;;;;;;14.73;12.70;;;;;;;;;;4993874;28;20232;-63
2022/01/19 04:24:18;;;;;;;15.40;12.73;;;;;;;;;;4989553;28;20228;-64
2022/01/19 04:26:45;;;;;;;14.33;12.73;;;;;;;;;;4962310;28;20819;-64
2022/01/19 04:29:11;;;;;;;13.03;11.63;;;;;;;;;;4986403;28;20699;-63
2022/01/19 04:31:37;;;;;;;14.53;12.10;;;;;;;;;;4987320;28;20334;-63
2022/01/19 04:34:05;;;;;;;13.33;11.93;;;;;;;;;;4985034;28;20651;-63
2022/01/19 04:37:09;;;;;;;13.57;12.17;;;;;;;;;;4985045;28;20232;-64
2022/01/19 04:43:52;;;;;;;14.17;10.50;;;;;;;;;;4982745;28;20522;-64
2022/01/19 05:01:52;;;;;;;9.00;8.13;;;;;;;;;;4981355;28;20799;-65
2022/01/19 05:06:47;;;;;;;8.80;7.53;;;;;;;;;;4982685;28;20240;-65
2022/01/19 05:14:47;;;;;;;7.30;6.60;;;;;;;;;;4992241;28;20317;-64
2022/01/19 05:17:13;;;;;;;7.07;6.47;;;;;;;;;;4985884;28;20225;-64
2022/01/19 05:19:39;;;;;;;7.03;6.43;;;;;;;;;;4986129;28;20312;-66
2022/01/19 05:22:05;;;;;;;6.93;6.23;;;;;;;;;;4972035;28;20229;-65
2022/01/19 05:24:31;;;;;;;6.50;5.80;;;;;;;;;;4983560;28;20224;-63
2022/01/19 05:26:57;;;;;;;7.40;6.57;;;;;;;;;;4971866;28;20245;-63
2022/01/19 05:29:23;;;;;;;6.97;6.37;;;;;;;;;;4969398;28;20225;-65
2022/01/19 05:31:49;;;;;;;7.90;6.00;;;;;;;;;;4984426;28;20240;-64
2022/01/19 05:34:15;;;;;;;6.30;5.70;;;;;;;;;;4976560;28;20291;-64
2022/01/19 05:36:41;;;;;;;6.40;5.80;;;;;;;;;;4985369;28;20248;-65
2022/01/19 05:39:07;;;;;;;8.30;6.20;;;;;;;;;;4986908;28;20212;-64
2022/01/19 05:41:33;;;;;;;6.10;5.50;;;;;;;;;;4982799;28;20218;-63
2022/01/19 05:43:59;;;;;;;6.80;6.10;;;;;;;;;;4976475;28;20237;-65
2022/01/19 05:46:25;;;;;;;6.50;5.90;;;;;;;;;;4966296;28;20547;-64
2022/01/19 05:48:51;;;;;;;6.80;6.10;;;;;;;;;;4979104;28;20613;-64
2022/01/19 05:51:17;;;;;;;6.10;5.60;;;;;;;;;;4962826;28;20722;-64
2022/01/19 05:53:43;;;;;;;6.50;5.80;;;;;;;;;;4971294;28;20256;-65
2022/01/19 05:56:09;;;;;;;5.97;5.47;;;;;;;;;;4988868;28;20700;-64
2022/01/19 05:58:35;;;;;;;6.97;5.93;;;;;;;;;;4980779;28;20889;-64
2022/01/19 06:01:01;;;;;;;6.53;5.87;;;;;;;;;;4986617;28;20356;-64
2022/01/19 06:03:27;;;;;;;6.80;6.20;;;;;;;;;;4977001;28;20237;-63
2022/01/19 06:05:53;;;;;;;7.37;6.07;;;;;;;;;;4989898;28;20232;-64
2022/01/19 06:10:45;;;;;;;16.23;10.60;;;;;;;;;;4986350;28;20237;-61
2022/01/19 06:13:15;;;;;;;21.47;13.17;;;;;;;;;;4994974;28;20614;-63
2022/01/19 06:15:41;;;;;;;20.77;12.90;;;;;;;;;;4994513;28;20275;-64
2022/01/19 06:18:07;;;;;;;17.57;12.43;;;;;;;;;;4991522;28;20765;-63
2022/01/19 06:20:33;;;;;;;17.77;12.77;;;;;;;;;;4988133;28;20308;-63
2022/01/19 06:22:59;;;;;;;19.47;12.30;;;;;;;;;;4993918;28;20698;-63
2022/01/19 06:25:25;;;;;;;18.73;12.33;;;;;;;;;;4985006;28;20235;-65
2022/01/19 06:27:51;;;;;;;19.03;13.23;;;;;;;;;;4989017;28;20229;-63
2022/01/19 06:30:17;;;;;;;18.00;12.83;;;;;;;;;;4982473;28;20241;-63
2022/01/19 06:32:43;;;;;;;20.90;12.83;;;;;;;;;;4979482;28;20350;-64
2022/01/19 06:35:09;;;;;;;19.97;12.07;;;;;;;;;;4985937;28;20271;-63
2022/01/19 06:37:35;;;;;;;17.07;12.97;;;;;;;;;;4979612;28;20248;-63
2022/01/19 06:40:01;;;;;;;16.43;12.33;;;;;;;;;;4980321;28;20366;-63
2022/01/19 06:42:29;;;;;;;18.53;11.27;;;;;;;;;;4980906;28;20780;-63
2022/01/19 06:44:55;;;;;;;15.03;11.70;;;;;;;;;;4982686;28;20234;-63
2022/01/19 06:47:21;;;;;;;16.73;11.20;;;;;;;;;;4987935;28;20234;-64
2022/01/19 06:49:47;;;;;;;15.00;11.80;;;;;;;;;;4991397;28;20812;-64
2022/01/19 06:52:13;;;;;;;15.93;11.77;;;;;;;;;;4994919;28;20359;-64
2022/01/19 06:54:39;;;;;;;13.87;11.37;;;;;;;;;;4988022;28;20257;-65
2022/01/19 06:57:04;;;;;;;13.33;11.37;;;;;;;;;;4987097;28;20551;-64
2022/01/19 06:59:31;;;;;;;12.33;10.50;;;;;;;;;;4989303;28;20217;-65
2022/01/19 07:01:56;;;;;;;13.60;10.90;;;;;;;;;;4995887;28;20236;-64
2022/01/19 07:04:23;;;;;;;12.50;10.93;;;;;;;;;;4993696;28;20244;-64
2022/01/19 07:06:49;;;;;;;14.03;10.30;;;;;;;;;;4996435;28;20236;-63
2022/01/19 07:09:15;;;;;;;14.40;10.37;;;;;;;;;;4980855;28;20256;-64
2022/01/19 07:11:41;;;;;;;10.40;9.40;;;;;;;;;;4989779;28;20540;-63
2022/01/19 07:14:08;;;;;;;10.53;9.40;;;;;;;;;;4999205;28;20232;-62
2022/01/19 07:16:34;;;;;;;10.67;9.57;;;;;;;;;;4996256;28;20322;-64
2022/01/19 07:19:00;;;;;;;12.10;10.23;;;;;;;;;;4993397;28;20837;-64
2022/01/19 07:21:26;;;;;;;10.10;8.90;;;;;;;;;;4993674;28;20229;-64
2022/01/19 07:23:52;;;;;;;10.83;9.63;;;;;;;;;;4994131;28;20226;-64
2022/01/19 07:26:18;;;;;;;11.60;10.23;;;;;;;;;;4990445;28;20696;-63
2022/01/19 07:28:44;;;;;;;10.13;9.10;;;;;;;;;;4990667;28;20234;-64
2022/01/19 07:31:10;;;;;;;10.43;9.30;;;;;;;;;;4983735;28;25746;-64
2022/01/19 07:33:36;;;;;;;11.17;9.30;;;;;;;;;;4974974;28;20383;-63
2022/01/19 07:36:02;;;;;;;10.40;9.30;;;;;;;;;;4981158;28;20252;-63
2022/01/19 07:38:28;;;;;;;11.07;9.07;;;;;;;;;;4986664;28;20580;-64
2022/01/19 07:40:54;;;;;;;10.13;9.13;;;;;;;;;;4986646;28;20260;-64
2022/01/19 07:43:20;;;;;;;10.30;9.20;;;;;;;;;;4984667;28;20245;-63
2022/01/19 07:45:46;;;;;;;10.77;9.63;;;;;;;;;;4985240;28;20233;-64
2022/01/19 07:48:12;;;;;;;11.97;9.63;;;;;;;;;;4985751;28;20240;-63
2022/01/19 07:50:38;;;;;;;11.40;9.57;;;;;;;;;;4976535;28;20222;-63
2022/01/19 07:53:04;;;;;;;12.07;9.47;;;;;;;;;;4980799;28;20229;-65
2022/01/19 07:55:30;;;;;;;11.10;9.83;;;;;;;;;;4988483;28;20228;-64
2022/01/19 07:57:56;;;;;;;11.17;9.90;;;;;;;;;;4982450;28;20805;-65
2022/01/19 08:00:22;;;;;;;11.27;9.93;;;;;;;;;;4993917;28;20236;-65
2022/01/19 08:02:49;;;;;;;12.73;9.73;;;;;;;;;;4993443;28;20755;-65
2022/01/19 08:05:15;;;;;;;14.53;9.77;;;;;;;;;;4984775;28;20245;-64
2022/01/19 08:07:41;;;;;;;10.97;9.50;;;;;;;;;;4989023;28;21104;-63
2022/01/19 08:10:09;;;;;;;12.17;9.70;;;;;;;;;;4971703;28;21223;-65
2022/01/19 08:12:35;;;;;;;11.40;9.70;;;;;;;;;;4981205;28;20234;-63
2022/01/19 08:15:01;;;;;;;11.23;10.13;;;;;;;;;;4979153;28;20338;-63
2022/01/19 08:17:27;;;;;;;10.80;9.80;;;;;;;;;;4985973;28;20243;-64
2022/01/19 08:19:53;;;;;;;10.37;9.27;;;;;;;;;;4976199;28;20578;-64
2022/01/19 08:22:19;;;;;;;11.17;9.70;;;;;;;;;;4986771;28;20223;-63
2022/01/19 08:24:45;;;;;;;11.17;10.03;;;;;;;;;;4981683;28;20727;-63
2022/01/19 08:27:11;;;;;;;11.33;10.17;;;;;;;;;;4972866;28;20240;-64
2022/01/19 08:29:37;;;;;;;11.50;9.80;;;;;;;;;;4978568;28;20235;-65
2022/01/19 08:32:04;;;;;;;11.07;9.10;;;;;;;;;;4985680;28;20242;-63
2022/01/19 08:34:30;;;;;;;11.10;10.00;;;;;;;;;;4979372;28;20230;-63
2022/01/19 08:36:56;;;;;;;11.07;9.73;;;;;;;;;;4984981;28;20252;-64
2022/01/19 08:39:24;;;;;;;10.80;9.70;;;;;;;;;;4985942;28;20906;-64
2022/01/19 08:41:50;;;;;;;10.57;9.47;;;;;;;;;;4984434;28;20224;-64
2022/01/19 08:44:16;;;;;;;11.50;9.87;;;;;;;;;;4986672;28;20232;-64
2022/01/19 08:46:42;;;;;;;10.10;9.10;;;;;;;;;;4989006;28;20294;-64
2022/01/19 08:49:08;;;;;;;10.40;9.10;;;;;;;;;;4982355;28;20650;-64
2022/01/19 08:51:34;;;;;;;10.47;9.47;;;;;;;;;;4984745;28;20330;-64
2022/01/19 08:54:00;;;;;;;9.83;8.83;;;;;;;;;;4985944;28;20232;-64
2022/01/19 08:56:26;;;;;;;9.87;8.87;;;;;;;;;;4984169;28;20780;-64
2022/01/19 08:58:52;;;;;;;10.10;8.50;;;;;;;;;;4988692;28;21848;-63
2022/01/19 09:01:17;;;;;;;10.27;9.13;;;;;;;;;;4986865;28;20245;-62
2022/01/19 09:03:43;;;;;;;10.30;9.30;;;;;;;;;;4986034;28;20612;-63
2022/01/19 09:06:09;;;;;;;11.13;9.37;;;;;;;;;;4987216;28;20781;-63
2022/01/19 09:08:35;;;;;;;10.27;9.17;;;;;;;;;;4996473;28;20628;-63
2022/01/19 09:11:02;;;;;;;10.30;8.83;;;;;;;;;;4986971;28;20729;-63
2022/01/19 09:13:28;;;;;;;9.53;8.50;;;;;;;;;;4981981;28;21088;-63
2022/01/19 09:15:54;;;;;;;9.60;8.60;;;;;;;;;;4995351;28;20822;-64
2022/01/19 09:18:20;;;;;;;9.67;8.67;;;;;;;;;;4983890;28;20305;-63
2022/01/19 09:20:46;;;;;;;10.93;9.00;;;;;;;;;;4982269;28;20897;-62
2022/01/19 09:23:13;;;;;;;10.27;9.20;;;;;;;;;;4983570;28;20233;-63
2022/01/19 09:25:40;;;;;;;9.50;8.27;;;;;;;;;;4986866;28;20740;-63
2022/01/19 09:28:07;;;;;;;10.57;9.00;;;;;;;;;;4999872;28;20284;-62
2022/01/19 09:30:33;;;;;;;10.77;9.20;;;;;;;;;;4991530;28;20227;-63
2022/01/19 09:33:08;;;;;;;9.13;8.23;;;;;;;;;;4990345;28;20232;-63
2022/01/19 09:36:04;;;;;;;9.37;8.37;;;;;;;;;;4986258;28;20217;-63
2022/01/19 09:38:31;;;;;;;9.07;8.00;;;;;;;;;;4983471;28;20399;-63
2022/01/19 09:40:57;;;;;;;9.17;8.23;;;;;;;;;;4997813;28;20221;-63
2022/01/19 09:43:23;;;;;;;9.17;8.23;;;;;;;;;;4987064;28;20311;-64
2022/01/19 09:45:53;;;;;;;9.23;8.30;;;;;;;;;;4968408;28;20244;-64
2022/01/19 09:48:19;;;;;;;9.43;8.53;;;;;;;;;;4997652;28;20712;-64
2022/01/19 09:50:45;;;;;;;11.10;9.07;;;;;;;;;;4999650;28;20230;-63
2022/01/19 09:53:11;;;;;;;9.37;8.43;;;;;;;;;;4991146;28;21145;-62
2022/01/19 09:55:43;;;;;;;10.00;8.73;;;;;;;;;;4996047;28;20231;-63
2022/01/19 09:58:09;;;;;;;10.07;8.80;;;;;;;;;;4984657;28;20245;-63
2022/01/19 10:00:35;;;;;;;13.17;9.97;;;;;;;;;;5004098;28;20349;-63
2022/01/19 10:03:14;;;;;;;10.77;9.67;;;;;;;;;;4998811;28;20231;-62
2022/01/19 10:05:54;;;;;;;11.83;10.57;;;;;;;;;;4979648;28;20240;-63
2022/01/19 10:08:37;;;;;;;10.83;9.73;;;;;;;;;;4977749;28;20236;-63
2022/01/19 10:11:04;;;;;;;14.37;9.87;;;;;;;;;;4986346;28;20237;-65
2022/01/19 10:17:08;;;;;;;12.00;10.43;;;;;;;;;;4980625;28;20233;-62
2022/01/19 10:19:14;;;;;;;11.63;10.40;;;;;;;;;;4968530;28;20236;-63
2022/01/19 10:22:00;;;;;;;15.00;10.83;;;;;;;;;;4982021;28;20225;-63
2022/01/19 10:24:52;;;;;;;11.93;10.67;;;;;;;;;;4979552;28;20232;-63
2022/01/19 10:27:18;;;;;;;13.67;11.50;;;;;;;;;;4979394;28;20244;-64
2022/01/19 10:29:44;;;;;;;12.33;10.27;;;;;;;;;;4983675;28;20225;-63
2022/01/19 10:32:10;;;;;;;12.37;10.33;;;;;;;;;;4984072;28;20279;-63
2022/01/19 10:34:36;;;;;;;12.33;10.50;;;;;;;;;;4986607;28;20259;-62
2022/01/19 10:37:03;;;;;;;12.03;10.83;;;;;;;;;;4978076;28;21329;-63
2022/01/19 10:39:51;;;;;;;12.13;10.73;;;;;;;;;;4972238;28;20284;-63
2022/01/19 10:42:21;;;;;;;11.63;10.43;;;;;;;;;;4963777;28;20287;-64
2022/01/19 10:45:20;;;;;;;12.80;10.17;;;;;;;;;;4965785;28;20252;-63
2022/01/19 10:47:53;;;;;;;12.97;10.87;;;;;;;;;;4941929;28;20245;-62
2022/01/19 10:50:21;;;;;;;12.00;10.73;;;;;;;;;;4983458;28;20597;-63
2022/01/19 10:52:47;;;;;;;12.27;10.53;;;;;;;;;;4984660;28;20244;-64
2022/01/19 10:55:19;;;;;;;10.97;9.87;;;;;;;;;;4967617;28;20229;-63
2022/01/19 10:57:45;;;;;;;11.60;10.40;;;;;;;;;;4984808;28;20691;-63
2022/01/19 11:00:24;;;;;;;12.13;10.93;;;;;;;;;;4981493;28;20661;-64
2022/01/19 11:02:54;;;;;;;11.27;10.17;;;;;;;;;;4984512;28;20248;-65
2022/01/19 11:05:39;;;;;;;13.23;11.00;;;;;;;;;;4965596;28;20248;-65
2022/01/19 11:08:05;;;;;;;12.23;10.90;;;;;;;;;;4984027;28;20233;-65
2022/01/19 11:10:31;;;;;;;13.00;11.40;;;;;;;;;;4984907;28;20311;-64
2022/01/19 11:12:58;;;;;;;12.80;11.50;;;;;;;;;;4980977;28;20252;-64
2022/01/19 11:15:24;;;;;;;14.40;11.77;;;;;;;;;;4971225;28;20824;-64
2022/01/19 11:17:50;;;;;;;12.83;11.40;;;;;;;;;;4988248;28;20220;-63
2022/01/19 11:20:18;;;;;;;14.03;11.80;;;;;;;;;;4989101;28;20234;-65
2022/01/19 11:23:03;;;;;;;14.53;12.00;;;;;;;;;;4984055;28;20554;-64
2022/01/19 11:25:33;;;;;;;13.83;11.73;;;;;;;;;;4980549;28;20837;-64
2022/01/19 11:27:58;;;;;;;14.57;12.63;;;;;;;;;;4981709;28;20232;-65
2022/01/19 11:30:45;;;;;;;14.20;12.70;;;;;;;;;;4971431;28;21236;-64
2022/01/19 11:33:13;;;;;;;13.97;12.40;;;;;;;;;;4959242;28;20209;-65
2022/01/19 11:35:40;;;;;;;12.83;11.53;;;;;;;;;;4958882;28;20222;-63
2022/01/19 11:38:25;;;;;;;15.33;11.93;;;;;;;;;;4972134;28;20293;-64
2022/01/19 11:40:51;;;;;;;13.33;11.23;;;;;;;;;;4963824;28;21529;-65
2022/01/19 11:43:18;;;;;;;12.93;11.53;;;;;;;;;;4968402;28;20233;-64
2022/01/19 11:45:44;;;;;;;16.23;11.17;;;;;;;;;;4961662;28;20639;-64
2022/01/19 11:48:17;;;;;;;13.00;11.23;;;;;;;;;;4978019;28;20309;-64
2022/01/19 11:50:43;;;;;;;13.87;11.80;;;;;;;;;;4997161;28;20274;-63
2022/01/19 11:53:11;;;;;;;12.83;10.90;;;;;;;;;;4999426;28;20709;-64
2022/01/19 11:55:37;;;;;;;12.07;10.77;;;;;;;;;;4986203;28;20235;-63
2022/01/19 11:58:32;;;;;;;13.97;11.63;;;;;;;;;;4995344;28;22036;-64
2022/01/19 12:00:58;;;;;;;12.20;10.90;;;;;;;;;;4967316;28;20236;-63
2022/01/19 12:03:25;;;;;;;15.43;11.07;;;;;;;;;;4985776;28;20299;-63
2022/01/19 12:05:52;;;;;;;12.87;11.23;;;;;;;;;;4986742;28;20243;-63
2022/01/19 12:08:29;;;;;;;12.27;10.97;;;;;;;;;;4981916;28;20226;-64
2022/01/19 12:10:57;;;;;;;12.63;11.20;;;;;;;;;;4986659;28;22478;-63
2022/01/19 12:16:03;;;;;;;15.30;11.27;;;;;;;;;;4975054;28;20287;-63
2022/01/19 12:18:47;;;;;;;15.43;11.63;;;;;;;;;;4968330;28;20383;-62
2022/01/19 12:21:14;;;;;;;13.70;11.60;;;;;;;;;;4963588;28;20234;-63
2022/01/19 12:23:41;;;;;;;17.50;11.73;;;;;;;;;;4959784;28;20361;-62
2022/01/19 12:26:09;;;;;;;12.63;11.17;;;;;;;;;;4975332;28;20244;-62
2022/01/19 12:28:41;;;;;;;15.40;11.20;;;;;;;;;;4970415;28;20236;-64
2022/01/19 12:31:25;;;;;;;13.27;11.87;;;;;;;;;;4971885;28;20233;-64
2022/01/19 12:36:46;;;;;;;14.23;12.27;;;;;;;;;;4979303;28;20710;-63
2022/01/19 12:39:28;;;;;;;13.63;10.87;;;;;;;;;;4971226;28;20225;-63
2022/01/19 12:42:00;;;;;;;12.63;11.33;;;;;;;;;;4974482;28;20295;-64
2022/01/19 12:44:35;;;;;;;14.93;12.13;;;;;;;;;;4972205;28;20244;-65
2022/01/19 12:47:04;;;;;;;15.30;11.80;;;;;;;;;;4977996;28;20298;-63
2022/01/19 12:49:30;;;;;;;13.40;12.00;;;;;;;;;;4969596;28;20230;-64
2022/01/19 12:51:56;;;;;;;17.97;11.63;;;;;;;;;;4973048;28;20225;-63
2022/01/19 12:54:29;;;;;;;16.40;12.17;;;;;;;;;;4976561;28;20632;-63
2022/01/19 12:57:02;;;;;;;15.63;12.33;;;;;;;;;;4965362;28;20364;-63
2022/01/19 12:59:28;;;;;;;14.53;11.80;;;;;;;;;;4978393;28;20687;-64
2022/01/19 13:01:54;;;;;;;20.10;12.57;;;;;;;;;;4979103;28;20293;-64
2022/01/19 13:04:30;;;;;;;17.50;13.47;;;;;;;;;;4978546;28;20237;-63
2022/01/19 13:06:57;;;;;;;15.87;13.23;;;;;;;;;;4983868;28;20241;-64
2022/01/19 13:09:34;;;;;;;15.27;12.57;;;;;;;;;;4985092;28;20236;-64
2022/01/19 13:12:10;;;;;;;19.10;13.63;;;;;;;;;;4984779;28;20241;-63
2022/01/19 13:14:36;;;;;;;14.90;13.33;;;;;;;;;;4983028;28;20237;-64
2022/01/19 13:17:02;;;;;;;16.93;13.57;;;;;;;;;;4987071;28;20464;-62
2022/01/19 13:19:29;;;;;;;16.70;14.23;;;;;;;;;;4988671;28;20228;-64
2022/01/19 13:22:09;;;;;;;16.57;13.60;;;;;;;;;;4994944;28;20332;-63
2022/01/19 13:24:36;;;;;;;17.07;13.63;;;;;;;;;;4989553;28;20237;-63
2022/01/19 13:27:06;;;;;;;16.13;13.63;;;;;;;;;;4989266;28;20238;-63
2022/01/19 13:29:35;;;;;;;14.97;13.37;;;;;;;;;;4982351;28;20321;-64
2022/01/19 13:32:04;;;;;;;17.73;14.13;;;;;;;;;;4982749;28;21113;-65
2022/01/19 13:34:31;;;;;;;19.27;15.00;;;;;;;;;;4991986;28;20256;-64
2022/01/19 13:36:59;;;;;;;18.50;14.50;;;;;;;;;;4984337;28;20264;-62
2022/01/19 13:39:25;;;;;;;16.03;14.33;;;;;;;;;;4978685;28;20256;-62
2022/01/19 13:41:53;;;;;;;17.90;14.80;;;;;;;;;;4984977;28;20352;-62
2022/01/19 13:44:25;;;;;;;18.93;15.13;;;;;;;;;;4973952;28;20253;-63
2022/01/19 13:46:51;;;;;;;18.00;15.30;;;;;;;;;;4978879;28;20236;-63
2022/01/19 13:49:16;;;;;;;18.47;14.57;;;;;;;;;;4974798;28;20221;-64
2022/01/19 13:51:43;;;;;;;20.93;15.20;;;;;;;;;;4981543;28;20229;-63
2022/01/19 13:54:09;;;;;;;19.87;15.53;;;;;;;;;;4978921;28;20894;-63
2022/01/19 13:56:36;;;;;;;20.47;15.83;;;;;;;;;;4975527;28;20315;-63
2022/01/19 13:59:06;;;;;;;20.37;16.87;;;;;;;;;;4968683;28;20241;-63
2022/01/19 14:01:49;;;;;;;20.70;15.03;;;;;;;;;;4984673;28;20778;-63
2022/01/19 14:04:15;;;;;;;20.07;15.77;;;;;;;;;;4978333;28;20749;-63
2022/01/19 14:06:42;;;;;;;17.80;15.23;;;;;;;;;;4986336;28;20233;-63
2022/01/19 14:09:23;;;;;;;22.30;16.27;;;;;;;;;;4980575;28;20532;-64
2022/01/19 14:12:11;;;;;;;19.97;15.50;;;;;;;;;;4980873;28;20260;-64
2022/01/19 14:14:38;;;;;;;18.80;15.73;;;;;;;;;;4980266;28;20233;-64
2022/01/19 14:17:05;;;;;;;21.83;16.67;;;;;;;;;;4986415;28;20301;-63
2022/01/19 14:19:32;;;;;;;22.20;16.60;;;;;;;;;;4991847;28;20945;-63
2022/01/19 14:22:22;;;;;;;20.67;16.80;;;;;;;;;;4985536;28;20364;-63
2022/01/19 14:24:50;;;;;;;21.23;16.13;;;;;;;;;;4988523;28;20428;-64
2022/01/19 14:27:17;;;;;;;20.10;15.93;;;;;;;;;;4987774;28;20243;-63
2022/01/19 14:29:56;;;;;;;24.27;16.90;;;;;;;;;;4992190;28;20233;-63
2022/01/19 14:32:35;;;;;;;26.00;18.50;;;;;;;;;;4982430;28;20252;-64
2022/01/19 14:35:01;;;;;;;30.70;19.53;;;;;;;;;;4970524;28;20241;-63
2022/01/19 14:37:27;;;;;;;30.53;20.70;;;;;;;;;;4987146;28;20232;-63
2022/01/19 14:39:54;;;;;;;26.70;20.20;;;;;;;;;;4974455;28;20287;-63
2022/01/19 14:42:25;;;;;;;28.00;19.67;;;;;;;;;;4981621;28;20233;-64
2022/01/19 14:44:59;;;;;;;25.90;19.87;;;;;;;;;;4967249;28;21390;-62
2022/01/19 14:47:36;;;;;;;28.07;20.07;;;;;;;;;;4961634;28;20450;-62
2022/01/19 14:50:23;;;;;;;24.37;18.93;;;;;;;;;;4975052;28;20340;-63
2022/01/19 14:52:49;;;;;;;25.07;19.50;;;;;;;;;;4984366;28;20622;-63
2022/01/19 14:55:17;;;;;;;25.47;18.73;;;;;;;;;;4974539;28;20715;-63
2022/01/19 14:57:43;;;;;;;25.83;18.27;;;;;;;;;;4987063;28;20236;-64
2022/01/19 15:00:09;;;;;;;26.53;19.07;;;;;;;;;;4981052;28;20217;-63
2022/01/19 15:02:35;;;;;;;23.23;17.70;;;;;;;;;;4965864;28;20239;-62
2022/01/19 15:05:01;;;;;;;26.10;18.83;;;;;;;;;;4981222;28;20304;-63
2022/01/19 15:07:27;;;;;;;24.77;18.23;;;;;;;;;;4981291;28;20690;-63
2022/01/19 15:09:53;;;;;;;22.90;17.83;;;;;;;;;;4978309;28;22486;-63
2022/01/19 15:12:19;;;;;;;24.70;19.13;;;;;;;;;;4974779;28;20226;-63
2022/01/19 15:14:45;;;;;;;22.20;18.03;;;;;;;;;;4973588;28;20233;-63
2022/01/19 15:17:11;;;;;;;26.57;18.40;;;;;;;;;;4979422;28;20818;-62
2022/01/19 15:19:38;;;;;;;21.40;17.80;;;;;;;;;;4974986;28;20248;-62
2022/01/19 15:22:04;;;;;;;22.87;17.80;;;;;;;;;;4969301;28;20248;-64
2022/01/19 15:24:30;;;;;;;20.97;16.53;;;;;;;;;;4970272;28;20697;-64
2022/01/19 15:26:56;;;;;;;23.10;17.17;;;;;;;;;;4962485;28;20225;-64
2022/01/19 15:29:21;;;;;;;23.63;18.60;;;;;;;;;;4973696;28;20361;-63
2022/01/19 15:31:53;;;;;;;22.63;16.77;;;;;;;;;;4950465;28;21071;-63
2022/01/19 15:34:19;;;;;;;22.03;17.20;;;;;;;;;;4962509;28;20467;-63
2022/01/19 15:36:45;;;;;;;22.27;17.53;;;;;;;;;;4962640;28;20232;-63
2022/01/19 15:39:11;;;;;;;21.83;17.33;;;;;;;;;;4955623;28;20204;-63
2022/01/19 15:41:37;;;;;;;25.60;18.07;;;;;;;;;;4962170;28;20236;-63
2022/01/19 15:44:04;;;;;;;60.33;20.97;;;;;;;;;;4964083;28;20255;-63
2022/01/19 15:46:29;;;;;;;30.67;18.20;;;;;;;;;;4958599;28;20252;-62
2022/01/19 15:48:55;;;;;;;37.90;19.73;;;;;;;;;;4954738;28;20730;-63
2022/01/19 15:51:21;;;;;;;32.73;19.97;;;;;;;;;;4960767;28;20694;-63
2022/01/19 15:53:47;;;;;;;29.87;20.10;;;;;;;;;;4968260;28;20860;-62
2022/01/19 15:56:13;;;;;;;33.37;21.43;;;;;;;;;;4967527;28;20300;-63
2022/01/19 15:58:39;;;;;;;30.70;20.67;;;;;;;;;;4957268;28;20233;-63
2022/01/19 16:01:05;;;;;;;28.30;20.57;;;;;;;;;;4959705;28;20431;-63
2022/01/19 16:03:31;;;;;;;34.33;22.43;;;;;;;;;;4967742;28;20236;-63
2022/01/19 16:05:57;;;;;;;32.80;23.20;;;;;;;;;;4965586;28;20209;-63
2022/01/19 16:08:23;;;;;;;29.60;21.97;;;;;;;;;;4970260;28;20186;-64